Time;durP1;ratioP1;P1;durP2;ratioP2;P2;SDS_P1;SDS_P2;PMS_P1;PMS_P2;Temp;Humidity;BMP_temperature;BMP_pressure;BME280_temperature;BME280_humidity;BME280_pressure;Samples;Min_cycle;Max_cycle;Signal;HPM_P1;HPM_P2
2022/03/11 00:01:32;;;;;;;22.02;12.05;;;6.00;80.10;;;;;;5027661;28;20057;-60
2022/03/11 00:03:58;;;;;;;24.83;13.00;;;5.90;80.00;;;;;;5028136;28;20044;-56
2022/03/11 00:06:24;;;;;;;21.73;12.82;;;5.90;80.20;;;;;;5027912;28;20030;-60
2022/03/11 00:08:51;;;;;;;24.65;13.00;;;5.90;81.00;;;;;;5027742;28;20065;-59
2022/03/11 00:11:16;;;;;;;22.48;13.40;;;5.90;80.60;;;;;;5027555;28;20122;-60
2022/03/11 00:13:42;;;;;;;27.25;13.48;;;5.90;81.30;;;;;;5027265;28;20033;-56
2022/03/11 00:16:08;;;;;;;24.30;12.88;;;5.80;81.40;;;;;;5027505;28;20406;-59
2022/03/11 00:18:34;;;;;;;25.30;13.60;;;5.80;82.20;;;;;;5027523;28;20402;-57
2022/03/11 00:20:59;;;;;;;23.23;13.30;;;5.80;82.00;;;;;;5027305;28;20117;-57
2022/03/11 00:23:25;;;;;;;22.42;13.02;;;5.70;82.50;;;;;;5027103;28;20104;-61
2022/03/11 00:25:51;;;;;;;22.50;13.55;;;5.70;83.20;;;;;;5027734;28;20025;-57
2022/03/11 00:28:17;;;;;;;24.45;13.43;;;5.70;82.90;;;;;;5028320;28;20088;-57
2022/03/11 00:30:43;;;;;;;24.60;13.93;;;5.70;82.80;;;;;;5027405;28;20056;-61
2022/03/11 00:33:09;;;;;;;22.48;13.43;;;5.60;83.70;;;;;;5027483;28;20025;-58
2022/03/11 00:35:35;;;;;;;20.85;12.93;;;5.50;84.10;;;;;;5027308;28;20025;-54
2022/03/11 00:38:01;;;;;;;25.60;13.40;;;5.50;84.40;;;;;;5027248;28;20500;-54
2022/03/11 00:40:27;;;;;;;22.65;13.00;;;5.40;85.00;;;;;;5027669;28;20037;-57
2022/03/11 00:42:52;;;;;;;22.13;12.57;;;5.40;85.30;;;;;;5027574;28;20026;-57
2022/03/11 00:45:18;;;;;;;26.45;13.20;;;5.40;85.90;;;;;;5047477;23;20045;-59
2022/03/11 00:47:43;;;;;;;22.58;13.00;;;5.40;86.00;;;;;;5050352;28;20330;-59
2022/03/11 00:50:09;;;;;;;23.40;12.88;;;5.40;86.10;;;;;;5050910;28;20082;-59
2022/03/11 00:52:35;;;;;;;23.85;12.40;;;5.40;86.90;;;;;;5051616;28;20043;-59
2022/03/11 00:55:03;;;;;;;22.40;12.73;;;5.30;87.00;;;;;;5051540;28;20529;-60
2022/03/11 00:57:28;;;;;;;23.33;13.93;;;5.40;87.60;;;;;;5050311;28;20021;-58
2022/03/11 00:59:54;;;;;;;22.63;12.90;;;5.30;87.80;;;;;;5051490;28;20087;-58
2022/03/11 01:02:19;;;;;;;22.98;12.05;;;5.30;87.90;;;;;;5051505;28;20114;-60
2022/03/11 01:04:48;;;;;;;22.38;11.88;;;5.30;87.80;;;;;;5050138;28;20036;-59
2022/03/11 01:07:14;;;;;;;26.85;13.57;;;5.30;88.00;;;;;;5050480;28;20028;-60
2022/03/11 01:09:40;;;;;;;23.10;13.55;;;5.30;88.40;;;;;;5051313;28;20021;-59
2022/03/11 01:12:06;;;;;;;24.50;13.38;;;5.20;88.30;;;;;;5050076;28;20029;-60
2022/03/11 01:14:31;;;;;;;26.10;13.32;;;5.20;89.00;;;;;;5050008;28;20025;-58
2022/03/11 01:16:57;;;;;;;23.10;12.43;;;5.20;89.30;;;;;;5051625;28;20626;-59
2022/03/11 01:19:23;;;;;;;27.63;14.32;;;5.20;89.00;;;;;;5051054;28;20068;-57
2022/03/11 01:21:49;;;;;;;25.52;13.30;;;5.10;89.80;;;;;;5051517;28;20021;-60
2022/03/11 01:24:15;;;;;;;24.88;14.30;;;5.10;89.90;;;;;;5051629;28;20021;-60
2022/03/11 01:26:40;;;;;;;25.58;13.82;;;5.00;90.00;;;;;;5054349;28;20017;-60
2022/03/11 01:29:06;;;;;;;25.58;12.88;;;4.90;90.20;;;;;;5055008;28;20082;-58
2022/03/11 01:31:31;;;;;;;22.85;14.13;;;4.90;90.70;;;;;;5054887;28;20447;-58
2022/03/11 01:33:57;;;;;;;28.45;15.32;;;4.90;90.80;;;;;;5053213;28;20028;-59
2022/03/11 01:36:23;;;;;;;25.35;14.57;;;4.90;91.00;;;;;;5053315;28;20025;-56
2022/03/11 01:38:48;;;;;;;23.30;13.20;;;4.90;90.90;;;;;;5054916;28;20083;-58
2022/03/11 01:41:14;;;;;;;24.05;13.55;;;4.90;91.10;;;;;;5054699;28;20117;-61
2022/03/11 01:44:00;;;;;;;26.13;13.32;;;4.80;91.10;;;;;;5054880;28;20021;-59
2022/03/11 01:46:25;;;;;;;24.55;13.85;;;4.80;91.50;;;;;;5054339;28;20035;-60
2022/03/11 01:48:51;;;;;;;24.95;13.55;;;4.80;91.50;;;;;;5054393;28;20536;-58
2022/03/11 01:51:17;;;;;;;27.17;14.93;;;4.80;91.70;;;;;;5054525;28;20029;-58
2022/03/11 01:53:44;;;;;;;23.58;13.77;;;4.80;91.90;;;;;;5054201;28;20039;-58
2022/03/11 01:56:10;;;;;;;25.80;14.38;;;4.70;92.10;;;;;;5054323;28;20039;-58
2022/03/11 01:58:36;;;;;;;26.35;14.45;;;4.60;92.10;;;;;;5053010;28;20032;-61
2022/03/11 02:01:03;;;;;;;24.75;13.65;;;4.70;92.40;;;;;;5052875;28;20055;-58
2022/03/11 02:03:29;;;;;;;26.52;13.57;;;4.60;92.40;;;;;;5054259;28;20397;-57
2022/03/11 02:05:55;;;;;;;28.27;14.52;;;4.60;92.50;;;;;;5052706;28;20036;-57
2022/03/11 02:08:20;;;;;;;24.77;14.32;;;4.50;92.80;;;;;;5054220;28;20029;-60
2022/03/11 02:10:46;;;;;;;27.67;15.05;;;4.50;92.80;;;;;;5053791;28;20078;-59
2022/03/11 02:13:12;;;;;;;27.30;14.70;;;4.60;93.00;;;;;;5054034;28;20211;-57
2022/03/11 02:15:37;;;;;;;25.02;13.02;;;4.60;92.80;;;;;;5052731;28;20039;-57
2022/03/11 02:18:03;;;;;;;25.00;14.35;;;4.60;92.90;;;;;;5054063;28;20498;-59
2022/03/11 02:20:29;;;;;;;26.00;14.70;;;4.60;92.90;;;;;;5053830;28;20025;-56
2022/03/11 02:22:57;;;;;;;25.15;14.55;;;4.60;92.90;;;;;;5053773;28;20057;-58
2022/03/11 02:25:23;;;;;;;23.67;14.80;;;4.60;93.20;;;;;;5053663;28;20028;-59
2022/03/11 02:27:48;;;;;;;24.58;15.18;;;4.50;93.10;;;;;;5053848;28;20029;-56
2022/03/11 02:30:19;;;;;;;24.33;13.73;;;4.40;93.30;;;;;;5052175;28;20023;-58
2022/03/11 02:32:45;;;;;;;29.65;15.38;;;4.50;93.60;;;;;;5053639;28;20444;-59
2022/03/11 02:35:12;;;;;;;27.13;14.95;;;4.50;93.50;;;;;;5053253;28;20024;-61
2022/03/11 02:37:38;;;;;;;25.88;13.55;;;4.50;93.60;;;;;;5053854;28;20116;-56
2022/03/11 02:40:05;;;;;;;27.80;14.85;;;4.50;93.60;;;;;;5052214;28;20017;-59
2022/03/11 02:42:31;;;;;;;29.50;13.80;;;4.50;93.50;;;;;;5052295;28;20031;-54
2022/03/11 02:45:01;;;;;;;25.85;13.82;;;4.40;93.70;;;;;;5052016;28;20108;-57
2022/03/11 02:47:27;;;;;;;30.63;13.98;;;4.50;93.90;;;;;;5053505;28;20021;-59
2022/03/11 02:49:53;;;;;;;26.40;13.68;;;4.30;93.90;;;;;;5053390;28;20048;-58
2022/03/11 02:52:19;;;;;;;26.45;14.10;;;4.30;94.20;;;;;;5053650;28;20025;-59
2022/03/11 02:54:44;;;;;;;28.02;15.45;;;4.30;94.30;;;;;;5054218;28;20457;-59
2022/03/11 02:57:10;;;;;;;25.05;14.70;;;4.30;94.50;;;;;;5053470;28;20029;-57
2022/03/11 02:59:36;;;;;;;23.95;14.40;;;4.20;94.40;;;;;;5051857;28;20025;-57
2022/03/11 03:02:01;;;;;;;25.50;14.65;;;4.10;94.60;;;;;;5052987;28;20029;-59
2022/03/11 03:04:27;;;;;;;27.38;14.00;;;4.20;94.80;;;;;;5053365;28;20021;-59
2022/03/11 03:06:54;;;;;;;26.23;14.75;;;4.20;94.70;;;;;;5053086;28;20123;-59
2022/03/11 03:09:20;;;;;;;28.60;15.10;;;4.10;94.60;;;;;;5051647;28;20028;-57
2022/03/11 03:11:46;;;;;;;25.30;13.80;;;4.10;94.70;;;;;;5052971;28;20029;-56
2022/03/11 03:14:11;;;;;;;28.38;13.48;;;4.20;94.80;;;;;;5051523;28;20029;-60
2022/03/11 03:16:37;;;;;;;24.92;13.68;;;4.20;94.70;;;;;;5052603;28;20148;-58
2022/03/11 03:19:03;;;;;;;23.83;13.15;;;4.10;94.60;;;;;;5052644;28;20492;-59
2022/03/11 03:21:28;;;;;;;31.13;15.98;;;4.10;94.90;;;;;;5052658;28;20029;-59
2022/03/11 03:23:54;;;;;;;28.67;16.25;;;4.00;94.70;;;;;;5052758;28;20017;-58
2022/03/11 03:26:19;;;;;;;26.80;14.70;;;4.00;95.20;;;;;;5052719;28;20423;-59
2022/03/11 03:28:45;;;;;;;27.50;14.75;;;3.90;95.20;;;;;;5052639;28;20021;-60
2022/03/11 03:31:11;;;;;;;25.55;14.55;;;3.90;95.20;;;;;;5052414;28;20568;-59
2022/03/11 03:33:37;;;;;;;25.65;15.00;;;3.80;95.50;;;;;;5052522;28;20405;-58
2022/03/11 03:36:02;;;;;;;28.75;15.65;;;3.80;95.50;;;;;;5052543;28;20025;-66
2022/03/11 03:38:28;;;;;;;26.95;15.05;;;3.90;95.80;;;;;;5051252;28;20488;-59
2022/03/11 03:40:54;;;;;;;26.75;13.48;;;3.70;95.90;;;;;;5050961;28;20025;-59
2022/03/11 03:43:19;;;;;;;29.30;14.82;;;3.80;96.10;;;;;;5052419;28;20489;-56
2022/03/11 03:45:45;;;;;;;28.58;15.20;;;3.80;96.00;;;;;;5050872;28;20029;-60
2022/03/11 03:48:10;;;;;;;29.23;15.32;;;3.70;96.10;;;;;;5050518;28;20116;-58
2022/03/11 03:50:36;;;;;;;27.05;14.65;;;3.70;96.20;;;;;;5050884;28;20397;-60
2022/03/11 03:53:02;;;;;;;25.45;15.40;;;3.70;96.30;;;;;;5051196;28;20028;-60
2022/03/11 03:55:28;;;;;;;23.55;13.88;;;3.70;96.20;;;;;;5052098;28;20078;-57
2022/03/11 03:57:53;;;;;;;26.65;14.57;;;3.60;96.40;;;;;;5052256;28;20029;-59
2022/03/11 04:00:19;;;;;;;29.02;15.52;;;3.50;96.40;;;;;;5050901;28;20366;-59
2022/03/11 04:02:46;;;;;;;31.13;16.25;;;3.40;96.80;;;;;;5051036;28;20028;-61
2022/03/11 04:05:13;;;;;;;27.83;15.10;;;3.50;96.90;;;;;;5052413;28;20031;-62
2022/03/11 04:07:40;;;;;;;26.88;15.23;;;3.50;96.90;;;;;;5051371;28;20020;-58
2022/03/11 04:10:06;;;;;;;28.48;15.57;;;3.40;96.90;;;;;;5052414;28;20028;-60
2022/03/11 04:12:32;;;;;;;32.03;17.13;;;3.40;97.10;;;;;;5051249;28;20516;-60
2022/03/11 04:14:57;;;;;;;28.27;15.43;;;3.30;97.20;;;;;;5051055;28;20032;-60
2022/03/11 04:17:23;;;;;;;31.13;16.92;;;3.30;97.60;;;;;;5051329;28;20098;-59
2022/03/11 04:19:49;;;;;;;28.85;14.40;;;3.30;97.60;;;;;;5051997;28;20108;-59
2022/03/11 04:22:15;;;;;;;28.13;15.00;;;3.40;97.30;;;;;;5050893;28;20396;-60
2022/03/11 04:24:41;;;;;;;28.95;15.95;;;3.30;97.50;;;;;;5050559;28;20018;-58
2022/03/11 04:27:07;;;;;;;28.65;16.05;;;3.20;97.50;;;;;;5052113;28;20074;-59
2022/03/11 04:29:32;;;;;;;29.35;16.80;;;3.20;97.70;;;;;;5050472;28;20017;-59
2022/03/11 04:31:58;;;;;;;28.23;16.52;;;3.30;97.90;;;;;;5051825;28;20025;-60
2022/03/11 04:34:25;;;;;;;28.27;15.48;;;3.30;97.80;;;;;;5051848;28;20032;-54
2022/03/11 04:36:51;;;;;;;27.38;17.00;;;3.20;98.10;;;;;;5052013;28;20017;-61
2022/03/11 04:39:17;;;;;;;30.85;15.88;;;3.20;98.10;;;;;;5052121;28;20104;-60
2022/03/11 04:41:44;;;;;;;28.83;17.48;;;3.10;98.40;;;;;;5050596;28;20029;-60
2022/03/11 04:44:10;;;;;;;30.05;16.73;;;3.00;98.50;;;;;;5051554;28;20055;-61
2022/03/11 04:46:35;;;;;;;28.98;16.08;;;3.10;98.60;;;;;;5051686;28;20110;-57
2022/03/11 04:49:01;;;;;;;27.80;16.10;;;3.10;98.50;;;;;;5051743;28;20591;-61
2022/03/11 04:51:26;;;;;;;28.83;16.20;;;3.10;98.40;;;;;;5051848;28;20025;-59
2022/03/11 04:53:53;;;;;;;28.63;16.45;;;3.00;98.80;;;;;;5051584;28;20503;-60
2022/03/11 04:56:19;;;;;;;27.77;15.85;;;2.90;98.90;;;;;;5051737;28;20083;-60
2022/03/11 04:58:44;;;;;;;28.33;15.98;;;2.90;99.20;;;;;;5051661;28;20029;-59
2022/03/11 05:01:10;;;;;;;30.92;15.95;;;2.80;99.40;;;;;;5053843;28;20025;-60
2022/03/11 05:03:36;;;;;;;29.10;16.58;;;2.70;99.40;;;;;;5055162;28;20032;-60
2022/03/11 05:06:01;;;;;;;32.20;17.45;;;2.90;99.80;;;;;;5055491;28;20025;-61
2022/03/11 05:08:27;;;;;;;30.60;17.48;;;2.80;99.70;;;;;;5054035;28;20048;-60
2022/03/11 05:10:53;;;;;;;29.73;16.45;;;2.70;99.80;;;;;;5053805;28;20111;-61
2022/03/11 05:13:18;;;;;;;28.33;17.67;;;2.70;99.90;;;;;;5053967;28;20021;-59
2022/03/11 05:15:44;;;;;;;30.67;17.80;;;2.50;99.90;;;;;;5055293;28;20025;-61
2022/03/11 05:18:11;;;;;;;30.80;17.35;;;2.60;99.90;;;;;;5055069;28;20521;-59
2022/03/11 05:20:37;;;;;;;27.77;16.45;;;2.50;99.90;;;;;;5055250;28;20025;-58
2022/03/11 05:23:03;;;;;;;31.67;17.20;;;2.50;99.90;;;;;;5053800;28;20025;-59
2022/03/11 05:25:29;;;;;;;29.30;17.45;;;2.50;99.90;;;;;;5054819;28;20028;-60
2022/03/11 05:27:55;;;;;;;28.60;17.08;;;2.50;99.90;;;;;;5054971;28;20028;-61
2022/03/11 05:30:20;;;;;;;28.35;16.23;;;2.50;99.90;;;;;;5055201;28;20036;-64
2022/03/11 05:32:46;;;;;;;56.80;33.88;;;2.50;99.90;;;;;;5055127;28;20021;-66
2022/03/11 05:35:14;;;;;;;34.13;19.75;;;2.60;99.90;;;;;;5055643;28;20024;-58
2022/03/11 05:37:40;;;;;;;33.85;17.33;;;2.60;99.90;;;;;;5054954;28;20389;-61
2022/03/11 05:40:06;;;;;;;30.08;17.35;;;2.60;99.90;;;;;;5053356;28;20025;-62
2022/03/11 05:42:31;;;;;;;28.33;17.30;;;2.70;99.90;;;;;;5053448;28;20036;-60
2022/03/11 05:44:57;;;;;;;30.30;16.55;;;2.60;99.90;;;;;;5054577;28;20025;-62
2022/03/11 05:47:23;;;;;;;31.67;16.38;;;2.60;99.90;;;;;;5054578;28;20025;-61
2022/03/11 05:49:49;;;;;;;27.35;17.45;;;2.60;99.90;;;;;;5053270;28;20021;-57
2022/03/11 05:52:14;;;;;;;27.02;16.10;;;2.60;99.90;;;;;;5054425;28;20028;-58
2022/03/11 05:54:40;;;;;;;31.52;17.25;;;2.70;99.90;;;;;;5054421;28;20029;-62
2022/03/11 05:57:05;;;;;;;29.95;17.23;;;2.70;99.90;;;;;;5054548;28;20028;-59
2022/03/11 05:59:32;;;;;;;30.63;17.42;;;2.60;99.90;;;;;;5054475;28;20029;-61
2022/03/11 06:01:58;;;;;;;30.17;17.40;;;2.70;99.90;;;;;;5054692;28;20025;-57
2022/03/11 06:04:24;;;;;;;33.78;19.60;;;2.70;99.90;;;;;;5054856;28;20452;-59
2022/03/11 06:06:50;;;;;;;32.85;17.40;;;2.90;99.90;;;;;;5053478;28;20021;-62
2022/03/11 06:09:16;;;;;;;30.70;16.90;;;2.90;99.70;;;;;;5051903;28;20027;-61
2022/03/11 06:11:41;;;;;;;32.13;18.55;;;2.90;99.90;;;;;;5053740;28;20078;-62
2022/03/11 06:14:07;;;;;;;37.38;18.55;;;2.90;99.80;;;;;;5056249;28;20024;-61
2022/03/11 06:16:33;;;;;;;32.38;17.15;;;2.90;99.80;;;;;;5072320;28;20031;-63
2022/03/11 06:19:00;;;;;;;32.42;17.20;;;2.80;99.70;;;;;;5062713;28;20020;-63
2022/03/11 06:21:26;;;;;;;92.93;53.13;;;2.80;99.70;;;;;;5054559;28;20052;-65
2022/03/11 06:23:52;;;;;;;31.00;17.90;;;2.90;99.80;;;;;;5053940;28;20039;-57
2022/03/11 06:26:18;;;;;;;31.13;18.73;;;2.90;99.90;;;;;;5054029;28;20021;-61
2022/03/11 06:28:43;;;;;;;34.25;18.40;;;2.90;99.90;;;;;;5073658;28;20028;-61
2022/03/11 06:31:11;;;;;;;31.33;16.52;;;2.90;99.50;;;;;;5074142;28;20032;-59
2022/03/11 06:33:37;;;;;;;30.17;18.05;;;3.00;99.50;;;;;;5074210;28;20052;-59
2022/03/11 06:36:04;;;;;;;33.88;18.02;;;3.00;99.50;;;;;;5073597;28;20035;-62
2022/03/11 06:38:29;;;;;;;31.02;16.58;;;3.10;99.30;;;;;;5073191;28;20017;-63
2022/03/11 06:40:56;;;;;;;30.38;16.50;;;3.10;99.40;;;;;;5071794;28;20025;-63
2022/03/11 06:43:21;;;;;;;32.42;18.02;;;3.10;99.00;;;;;;5072225;28;20058;-59
2022/03/11 06:45:47;;;;;;;30.75;18.50;;;3.20;98.90;;;;;;5052943;28;20025;-56
2022/03/11 06:48:13;;;;;;;30.80;17.67;;;3.30;99.00;;;;;;5052797;22;20060;-60
2022/03/11 06:50:38;;;;;;;35.22;19.70;;;3.30;98.60;;;;;;5032384;28;20026;-61
2022/03/11 06:53:04;;;;;;;35.63;17.83;;;3.20;98.30;;;;;;5014933;28;20018;-63
2022/03/11 06:55:29;;;;;;;33.10;18.10;;;3.30;98.50;;;;;;5015524;28;20071;-62
2022/03/11 06:57:55;;;;;;;33.40;16.92;;;3.30;98.10;;;;;;5033077;28;20021;-64
2022/03/11 07:00:21;;;;;;;35.72;18.85;;;3.40;98.00;;;;;;5032598;28;20175;-63
2022/03/11 07:02:46;;;;;;;31.70;18.50;;;3.50;97.60;;;;;;5032836;28;20029;-64
2022/03/11 07:05:12;;;;;;;34.55;18.92;;;3.50;97.30;;;;;;5032536;28;20495;-64
2022/03/11 07:07:39;;;;;;;31.52;17.73;;;3.60;97.30;;;;;;5032190;28;20028;-63
2022/03/11 07:10:07;;;;;;;29.80;17.38;;;3.60;97.00;;;;;;5014496;28;20079;-64
2022/03/11 07:12:33;;;;;;;33.50;17.58;;;3.70;97.00;;;;;;5048091;28;20091;-63
2022/03/11 07:15:01;;;;;;;30.90;17.50;;;3.70;96.50;;;;;;5032178;28;20025;-63
2022/03/11 07:17:27;;;;;;;33.75;18.13;;;3.80;96.40;;;;;;5032233;28;20109;-62
2022/03/11 07:19:53;;;;;;;33.67;17.25;;;3.90;96.40;;;;;;5032380;28;20048;-62
2022/03/11 07:22:18;;;;;;;30.63;17.67;;;3.90;95.90;;;;;;5032052;28;20461;-63
2022/03/11 07:24:45;;;;;;;34.75;18.35;;;4.00;95.80;;;;;;5032617;28;20060;-63
2022/03/11 07:27:11;;;;;;;32.67;18.08;;;4.10;95.90;;;;;;5032654;28;20525;-63
2022/03/11 07:29:37;;;;;;;33.10;18.17;;;4.10;95.50;;;;;;5048041;28;20032;-64
2022/03/11 07:32:03;;;;;;;34.20;18.88;;;4.20;95.40;;;;;;5015334;28;20033;-63
2022/03/11 07:34:29;;;;;;;33.78;18.60;;;4.30;95.00;;;;;;5032054;28;20056;-62
2022/03/11 07:36:55;;;;;;;30.33;18.23;;;4.40;94.80;;;;;;5032539;28;20021;-65
2022/03/11 07:39:20;;;;;;;38.72;23.20;;;4.40;94.40;;;;;;5032322;28;20159;-64
2022/03/11 07:41:46;;;;;;;34.03;20.33;;;4.50;94.50;;;;;;5032162;28;20025;-65
2022/03/11 07:44:13;;;;;;;29.40;17.77;;;4.60;94.50;;;;;;5038563;28;20100;-65
2022/03/11 07:46:38;;;;;;;31.60;17.70;;;4.70;94.00;;;;;;5034057;28;20031;-60
2022/03/11 07:49:04;;;;;;;40.58;19.85;;;4.80;93.80;;;;;;5052330;28;20385;-61
2022/03/11 07:51:30;;;;;;;27.50;17.67;;;4.90;93.40;;;;;;5052311;28;20025;-64
2022/03/11 07:53:57;;;;;;;35.38;17.67;;;4.90;92.90;;;;;;5052037;28;20465;-63
2022/03/11 07:56:23;;;;;;;33.45;19.20;;;5.10;92.90;;;;;;5051805;28;20025;-63
2022/03/11 07:58:49;;;;;;;30.23;19.50;;;5.10;92.60;;;;;;5051931;28;20025;-63
2022/03/11 08:01:14;;;;;;;31.42;18.50;;;5.20;92.50;;;;;;5051633;28;20029;-65
2022/03/11 08:03:41;;;;;;;36.20;19.75;;;5.30;92.20;;;;;;5051906;28;20032;-64
2022/03/11 08:06:08;;;;;;;33.85;19.05;;;5.40;91.90;;;;;;5051776;28;20032;-63
2022/03/11 08:08:35;;;;;;;34.92;19.95;;;5.40;91.60;;;;;;5051780;28;20029;-63
2022/03/11 08:11:01;;;;;;;33.80;19.63;;;5.50;91.40;;;;;;5025045;28;20025;-63
2022/03/11 08:13:27;;;;;;;34.25;19.35;;;5.50;91.20;;;;;;5014339;28;20079;-64
2022/03/11 08:15:54;;;;;;;35.33;21.38;;;5.60;90.90;;;;;;5031681;28;20036;-63
2022/03/11 08:18:20;;;;;;;33.80;18.58;;;5.60;90.40;;;;;;5013997;28;20079;-62
2022/03/11 08:20:45;;;;;;;31.70;17.08;;;5.70;90.30;;;;;;5031445;28;20037;-62
2022/03/11 08:23:11;;;;;;;32.22;17.77;;;5.70;89.90;;;;;;5014119;28;20495;-64
2022/03/11 08:25:37;;;;;;;30.13;18.58;;;5.80;90.10;;;;;;5031619;28;20026;-64
2022/03/11 08:28:05;;;;;;;31.17;17.35;;;5.90;88.80;;;;;;5031842;28;20046;-62
2022/03/11 08:30:31;;;;;;;34.08;19.27;;;5.90;89.10;;;;;;5031591;28;20051;-64
2022/03/11 08:32:58;;;;;;;33.50;18.63;;;6.00;89.20;;;;;;5014005;28;20069;-63
2022/03/11 08:35:24;;;;;;;30.27;17.88;;;6.00;88.40;;;;;;5035823;28;20025;-63
2022/03/11 08:37:50;;;;;;;30.98;17.98;;;6.10;87.90;;;;;;5035583;28;20032;-63
2022/03/11 08:40:17;;;;;;;30.85;19.58;;;6.10;87.20;;;;;;5018163;28;20085;-64
2022/03/11 08:42:43;;;;;;;34.25;18.00;;;6.20;87.50;;;;;;5017844;28;20469;-64
2022/03/11 08:45:11;;;;;;;32.85;19.85;;;6.30;86.20;;;;;;5017932;28;20053;-64
2022/03/11 08:47:36;;;;;;;33.70;19.00;;;6.30;85.20;;;;;;5017733;28;20026;-63
2022/03/11 08:50:06;;;;;;;37.00;17.98;;;6.30;85.30;;;;;;5035422;28;20034;-64
2022/03/11 08:52:36;;;;;;;31.88;18.48;;;6.40;84.80;;;;;;5036648;28;20093;-64
2022/03/11 08:55:02;;;;;;;32.63;18.58;;;6.50;83.60;;;;;;5037107;28;20037;-65
2022/03/11 08:57:27;;;;;;;29.75;17.92;;;6.60;83.30;;;;;;5036394;28;20029;-65
2022/03/11 08:59:54;;;;;;;30.77;17.05;;;6.60;82.40;;;;;;5035659;28;20169;-66
2022/03/11 09:02:23;;;;;;;32.03;18.67;;;6.80;82.40;;;;;;5018335;28;20032;-66
2022/03/11 09:04:49;;;;;;;34.50;18.02;;;6.80;81.80;;;;;;5035742;28;20056;-66
2022/03/11 09:07:15;;;;;;;29.48;17.88;;;6.90;81.40;;;;;;5036004;28;20072;-66
2022/03/11 09:09:41;;;;;;;30.33;18.25;;;6.90;81.30;;;;;;5035636;28;20095;-64
2022/03/11 09:12:06;;;;;;;28.00;16.65;;;7.00;82.90;;;;;;5034796;28;20025;-64
2022/03/11 09:14:33;;;;;;;29.83;18.17;;;7.10;81.00;;;;;;5035325;28;20191;-65
2022/03/11 09:16:59;;;;;;;32.03;19.33;;;7.20;81.10;;;;;;5017013;28;20041;-65
2022/03/11 09:19:25;;;;;;;28.73;17.10;;;7.30;80.20;;;;;;5049961;28;20030;-64
2022/03/11 09:21:51;;;;;;;32.80;18.92;;;7.40;79.40;;;;;;5017037;28;20079;-65
2022/03/11 09:24:17;;;;;;;28.38;16.88;;;7.50;79.40;;;;;;5050429;28;20026;-65
2022/03/11 09:26:49;;;;;;;30.02;18.13;;;7.60;78.80;;;;;;5035141;28;20661;-64
2022/03/11 09:29:14;;;;;;;30.98;16.50;;;7.70;79.10;;;;;;5017267;28;20022;-66
2022/03/11 09:31:40;;;;;;;30.58;16.88;;;7.80;77.70;;;;;;5017114;28;20555;-65
2022/03/11 09:34:06;;;;;;;25.85;16.10;;;7.90;77.00;;;;;;5035010;28;20428;-65
2022/03/11 09:36:31;;;;;;;26.65;16.70;;;8.10;77.30;;;;;;5017021;28;20026;-66
2022/03/11 09:38:57;;;;;;;30.05;17.33;;;8.10;76.30;;;;;;5034892;28;20048;-64
2022/03/11 09:41:27;;;;;;;31.58;18.02;;;8.30;75.50;;;;;;5034569;28;20108;-65
2022/03/11 09:43:54;;;;;;;28.67;17.88;;;8.30;74.30;;;;;;5050803;28;20063;-66
2022/03/11 09:46:20;;;;;;;29.83;17.70;;;8.40;74.10;;;;;;5034079;28;20029;-66
2022/03/11 09:48:46;;;;;;;27.90;15.68;;;8.50;73.50;;;;;;5034674;28;20033;-65
2022/03/11 09:51:12;;;;;;;30.95;16.88;;;8.60;72.60;;;;;;5034714;28;20087;-65
2022/03/11 09:53:38;;;;;;;46.50;31.30;;;8.80;71.90;;;;;;5017624;28;20021;-67
2022/03/11 09:56:04;;;;;;;91.45;63.63;;;8.90;71.20;;;;;;5034970;28;20063;-66
2022/03/11 09:58:29;;;;;;;29.38;21.48;;;8.90;71.00;;;;;;5034618;28;20389;-65
2022/03/11 10:00:55;;;;;;;34.58;15.90;;;9.00;70.70;;;;;;5034619;28;20017;-66
2022/03/11 10:03:22;;;;;;;28.55;16.63;;;9.10;69.90;;;;;;5049663;28;20026;-65
2022/03/11 10:05:53;;;;;;;29.25;16.70;;;9.20;70.40;;;;;;5034458;28;20052;-65
2022/03/11 10:08:37;;;;;;;29.00;16.60;;;9.20;69.10;;;;;;5034157;28;20022;-65
2022/03/11 10:11:21;;;;;;;25.42;15.82;;;9.30;69.50;;;;;;5035400;28;20032;-64
2022/03/11 10:13:47;;;;;;;26.83;16.58;;;9.50;69.30;;;;;;5035221;28;20108;-65
2022/03/11 10:16:19;;;;;;;27.20;16.17;;;9.50;68.50;;;;;;5035511;28;20108;-65
2022/03/11 10:18:58;;;;;;;24.63;16.35;;;9.60;68.20;;;;;;5034770;28;20400;-66
2022/03/11 10:21:34;;;;;;;27.80;16.95;;;9.70;67.30;;;;;;5034211;28;20120;-65
2022/03/11 10:24:02;;;;;;;29.25;16.27;;;9.60;67.60;;;;;;5034211;28;20393;-66
2022/03/11 10:26:35;;;;;;;26.67;17.10;;;9.70;67.60;;;;;;5016760;28;20040;-67
2022/03/11 10:29:04;;;;;;;29.35;16.60;;;9.90;67.00;;;;;;5034262;28;20021;-69
2022/03/11 10:31:35;;;;;;;23.10;14.82;;;10.00;66.80;;;;;;5034080;28;20105;-68
2022/03/11 10:34:12;;;;;;;27.23;16.25;;;10.00;66.30;;;;;;5034304;28;20025;-70
2022/03/11 10:36:49;;;;;;;27.05;17.55;;;10.00;66.40;;;;;;5016479;28;20026;-69
2022/03/11 10:39:16;;;;;;;25.50;16.45;;;10.00;65.50;;;;;;5016205;28;20026;-68
2022/03/11 10:41:42;;;;;;;28.23;17.50;;;10.10;66.30;;;;;;5016289;28;20030;-69
2022/03/11 10:44:12;;;;;;;26.52;15.95;;;10.30;65.90;;;;;;5033956;28;20113;-68
2022/03/11 10:46:38;;;;;;;28.15;15.48;;;10.30;65.90;;;;;;5033759;28;20100;-68
2022/03/11 10:49:04;;;;;;;25.35;16.30;;;10.50;65.60;;;;;;5034053;28;20172;-69
2022/03/11 10:51:34;;;;;;;28.65;15.18;;;10.60;64.90;;;;;;5009991;28;20029;-68
2022/03/11 10:54:03;;;;;;;27.27;15.75;;;10.70;64.20;;;;;;5030786;28;20087;-68
2022/03/11 10:56:34;;;;;;;26.38;15.82;;;10.90;64.00;;;;;;5033385;28;20105;-69
2022/03/11 10:59:06;;;;;;;23.55;15.57;;;10.90;63.60;;;;;;5015666;28;20028;-67
2022/03/11 11:01:40;;;;;;;24.20;15.82;;;10.90;63.70;;;;;;5033401;28;20064;-69
2022/03/11 11:04:08;;;;;;;27.58;16.83;;;10.80;62.50;;;;;;5015198;28;20053;-69
2022/03/11 11:06:34;;;;;;;;;;;10.90;63.30;;;;;;5015907;28;20585;-67
2022/03/11 11:09:01;;;;;;;23.60;14.52;;;11.10;62.90;;;;;;5014981;28;19999;-67
2022/03/11 11:11:28;;;;;;;23.73;15.20;;;11.00;62.40;;;;;;5032073;28;20489;-69
2022/03/11 11:13:54;;;;;;;46.03;28.05;;;11.10;63.10;;;;;;5015425;28;20037;-68
2022/03/11 11:16:24;;;;;;;42.17;27.00;;;11.60;62.90;;;;;;5032316;28;20033;-66
2022/03/11 11:18:51;;;;;;;23.80;14.85;;;12.40;61.00;;;;;;5015039;28;20041;-66
2022/03/11 11:21:24;;;;;;;24.65;16.63;;;12.90;59.90;;;;;;5032924;28;20436;-66
2022/03/11 11:23:54;;;;;;;25.33;16.13;;;13.70;58.40;;;;;;5026782;28;20112;-68
2022/03/11 11:26:23;;;;;;;24.98;16.40;;;14.10;57.40;;;;;;5011108;28;20022;-67
2022/03/11 11:28:52;;;;;;;27.15;16.15;;;14.50;56.30;;;;;;4994330;28;20029;-68
2022/03/11 11:31:20;;;;;;;23.80;16.05;;;15.10;55.40;;;;;;5012644;28;20029;-67
2022/03/11 11:33:47;;;;;;;27.88;16.50;;;15.40;55.70;;;;;;5014563;28;20025;-69
2022/03/11 11:36:12;;;;;;;26.10;16.67;;;15.80;53.60;;;;;;4996662;28;20033;-70
2022/03/11 11:38:42;;;;;;;23.77;16.20;;;15.60;52.60;;;;;;5014739;28;20105;-68
2022/03/11 11:41:26;;;;;;;25.67;16.60;;;16.10;52.20;;;;;;5014632;28;20025;-69
2022/03/11 11:44:00;;;;;;;24.67;15.48;;;16.80;51.20;;;;;;5014981;28;20030;-69
2022/03/11 11:46:28;;;;;;;23.42;16.48;;;17.40;51.00;;;;;;4996530;28;20125;-67
2022/03/11 11:48:54;;;;;;;23.48;17.30;;;17.70;49.60;;;;;;5012475;28;20021;-67
2022/03/11 11:51:22;;;;;;;25.05;17.27;;;17.40;48.60;;;;;;5013204;28;20026;-69
2022/03/11 11:53:56;;;;;;;26.63;17.27;;;18.00;48.70;;;;;;5012697;28;20107;-69
2022/03/11 11:56:38;;;;;;;25.75;17.25;;;18.00;48.60;;;;;;5012479;28;20058;-68
2022/03/11 11:59:07;;;;;;;24.98;17.10;;;18.20;47.80;;;;;;4994574;28;20025;-70
2022/03/11 12:01:39;;;;;;;24.05;16.75;;;18.10;47.80;;;;;;5012053;28;20517;-69
2022/03/11 12:04:19;;;;;;;25.55;17.70;;;18.90;46.90;;;;;;5012338;28;20040;-68
2022/03/11 12:07:04;;;;;;;26.95;17.80;;;19.50;45.90;;;;;;5012188;28;20032;-68
2022/03/11 12:12:08;;;;;;;23.55;17.33;;;19.30;45.70;;;;;;5029140;28;20040;-69
2022/03/11 12:17:44;;;;;;;24.58;16.88;;;19.70;45.50;;;;;;5031973;28;20037;-66
2022/03/11 12:20:38;;;;;;;27.27;17.33;;;20.00;44.20;;;;;;5032215;28;20029;-67
2022/03/11 12:23:20;;;;;;;23.05;16.60;;;20.60;43.70;;;;;;5032505;28;20116;-67
2022/03/11 12:25:54;;;;;;;28.67;16.58;;;20.60;43.10;;;;;;5014518;28;20028;-66
2022/03/11 12:28:41;;;;;;;26.13;16.42;;;20.00;43.90;;;;;;5032129;28;20021;-66
2022/03/11 12:31:13;;;;;;;25.63;17.30;;;19.70;43.60;;;;;;5032443;28;20029;-67
2022/03/11 12:33:39;;;;;;;24.83;17.77;;;19.70;44.30;;;;;;5047627;28;20029;-67
2022/03/11 12:36:08;;;;;;;23.52;17.40;;;20.30;43.40;;;;;;5031470;28;20404;-68
2022/03/11 12:38:37;;;;;;;25.58;17.35;;;20.70;43.10;;;;;;5031695;28;20223;-68
2022/03/11 12:41:11;;;;;;;22.92;16.50;;;20.90;43.10;;;;;;5031265;28;20059;-67